X  Blizu METAR Podaci o vazduhoplovstvu     EHKD De Kooy Airport
Temperatura
11°C Temperatura
9°C Tačka Rose
88% Vlaga



Vetar
8 KM/S
5 MPS
2 M/S
4 Čvorovi



210°
JJZ
Trenutna situacija

Slaba Kiša Slaba Kiša
Vazdušni pritisak 1016.93 (hPa) - 30.03 (inHg)
Vidljivost 6 (Milje) - 9.7 (km)
Aerodrom
Aerodromski kod. EHKD

Lokacija: De Kooy Airport
Udaljenost: 34 (km)

Metar:
EHKD 130247Z AUTO 21004KT 9999 -RA FEW015CB OVC044 11/09 Q1017 BLU

Vreme: 13-06-2024 04:47 CEST